Hauptseite
METAR-TAF:

METAR-TAF

Flughäfen :

Dakar, Senegal

Flughafen Dakar-Léopold Sédar Senghor

Breite: 14-44N, Länge: 017-30W, Höhe: 27 m

Beobachtung

Neuester Wetterbericht von vor 1 Stunde und 40 Minuten, um 11:00 UTC
Wind 12 kt aus Nord/Nordwest
Temperatur 31°C
Luftfeuchtigkeit 75%
Luftdruck 1015 hPa
Sichtweite 10 km oder mehr
Aufgelockert bewölkt in der Höhe von 1000 ft

METAR: GOOY 201100Z 34012KT 9999 SCT010 31/26 Q1015 NOSIG

Zeit: 12:40 (12:40 UTC)

Prognose

Neuester Wetterbericht von vor 1 Stunde und 10 Minuten, um 11:30 UTC
Gültige Prognose vom 20 um 12 UTC bis 21 um 18 UTC
Wind 12 kt aus Nordwest
Sichtweite 10 km oder mehr
Aufgelockert bewölkt in der Höhe von 1200 ft

TAF: GOOY 201130Z 2012/2118 32012KT 9999 SCT012

Wetterbeobachtungen und Prognosen von mehr als 4000 Flughäfen (METAR und TAF Bericht).

Die verfügbaren Stationen werden durch gelbe und rote Markierungen auf der Karte dargestellt.

Führen Sie die Maus auf sie, um den Namen der Station zu sehen.

Darauf klicken, um die Beobachtung von Wetterbeobachtungen und Prognosen zu sehen.

Um die Karte zu ändern : klicken Sie auf den grünen Tasten mit einem schwarzen Kreuz Zum Vergrößern, auf den grünen Button mit einem Gedankenstrich zu verkleinern, oder auf die grünen Pfeile für benachbarte Karten.


METAR-TAF: